USCGC Healy — NEPP — position and weather

sailwx.info

Track history (hours):
 
Tides and Currents Weather Stations Pressure Air Temp Water Temp Dewpoint Dewpoint Depression Visibility Wind Speed Wind Dir Waves Ship Positions

Oceanographic research ship USCGC Healy (USA)

Detailed information on ship capabilities available from University of Delaware's Ocean Information Center and ARCUS's ALIAS (Arctic Logistics Information and Support) project.

Last reported at 2014-Sep-18 18:00 UTC. Time now 2014-Sep-19 05:49 UTC.
Position N 50°12' W 130°42'.

Type: Dredging. MMSI: 303902000.

Wind from 210 at 27 knots

Waves 1.0 meters (3 feet), 2 second period

Barometer 1003.8 mb
Air temperature 19.4 ° C
Visibility: greater than 5.4 NM
Dewpoint 14.1 ° C
Water temperature 17.2 ° C

Date/timePositionNaut miles runAvg speedWind from/ knotsBaromVisibWave heightAir tempDewpointWater temp
2014-Sep-18 18:00N 50°12' W 130°42'3611.9 210 / 271003.8 5.4 1.019.414.117.2
2014-Sep-18 15:00N 49°54' W 129°54'15115.3 230 / 111005.8 5.4 0.519.414.117.2
2014-Sep-18 05:04N 48°44' W 126°28'815.5
2014-Sep-18 04:33N 48°40' W 126°18'1313.3
2014-Sep-18 03:33N 48°33' W 126°01'5 4.5
2014-Sep-18 02:33N 48°28' W 125°60'4 3.6
2014-Sep-18 01:33N 48°27' W 125°55'2 2.5
2014-Sep-18 00:33N 48°25' W 125°58'4 1.8
2014-Sep-17 22:33N 48°25' W 126°04'12 9.1
2014-Sep-17 21:15N 48°14' W 126°09'1 0.1
2014-Sep-17 16:19N 48°14' W 126°09'2 7.7
2014-Sep-17 16:00N 48°12' W 126°06'3 2.1 120 / 91008.1 0.517.812.115.6
2014-Sep-17 14:33N 48°14' W 126°09'1 0.3
2014-Sep-17 11:29N 48°15' W 126°08'3 2.7
2014-Sep-17 10:32N 48°13' W 126°09'2 1.5
2014-Sep-17 09:18N 48°14' W 126°10'35 3.5
2014-Sep-16 23:21N 48°16' W 125°18'13 4.7
2014-Sep-16 20:32N 48°25' W 125°32'1715.5
2014-Sep-16 19:27N 48°31' W 125°08'1516.5
2014-Sep-16 18:33N 48°31' W 124°46'1615.7
2014-Sep-16 17:33N 48°25' W 124°24'1515.3
2014-Sep-16 16:33N 48°19' W 124°02'1515.2
2014-Sep-16 15:33N 48°16' W 123°40'1515.2
2014-Sep-16 14:33N 48°14' W 123°18'9 8.9
2014-Sep-16 13:33N 48°14' W 123°04'4 4.1
2014-Sep-16 12:33N 48°14' W 122°58'3 3.1
2014-Sep-16 11:33N 48°16' W 123°02'3 3.5
2014-Sep-16 10:33N 48°14' W 123°05'5 5.2
2014-Sep-16 09:33N 48°15' W 122°58'3 2.9
2014-Sep-16 08:33N 48°16' W 123°02'3 3.3
2014-Sep-16 07:33N 48°14' W 123°06'5 4.6
2014-Sep-16 06:33N 48°14' W 122°59'3 2.5
2014-Sep-16 05:31N 48°14' W 123°03'2 1.7
2014-Sep-16 04:33N 48°15' W 123°04'2 2.5
2014-Sep-16 03:33N 48°16' W 123°01'4 3.8
2014-Sep-16 02:33N 48°14' W 123°06'3 2.7
2014-Sep-16 01:33N 48°14' W 123°02'0 0.4
2014-Sep-16 00:33N 48°15' W 123°02'1 1.4
2014-Sep-15 23:32N 48°14' W 123°04'3 3.1
2014-Sep-15 22:33N 48°15' W 122°60'3 3.0
2014-Sep-15 21:33N 48°14' W 122°55'9 9.2
2014-Sep-15 20:33N 48°10' W 122°43'1413.7
2014-Sep-15 19:31N 47°57' W 122°33'1212.7
2014-Sep-15 18:34N 47°46' W 122°26'9 9.3
2014-Sep-15 17:33N 47°37' W 122°23'2 2.0
2014-Sep-15 16:30N 47°35' W 122°20'0 0.0
2014-Sep-15 15:24N 47°35' W 122°20'0 0.0
2014-Sep-15 14:30N 47°35' W 122°20'0 0.0
2014-Sep-15 13:30N 47°35' W 122°20'0 0.0
2014-Sep-15 12:15N 47°35' W 122°20'0 0.0
2014-Sep-15 11:30N 47°35' W 122°20'0 0.0
2014-Sep-15 10:30N 47°35' W 122°20'0 0.0
2014-Sep-15 09:30N 47°35' W 122°20'0 0.0
2014-Sep-15 08:30N 47°35' W 122°20'0 0.0
2014-Sep-15 07:30N 47°35' W 122°20'0 0.0
2014-Sep-15 06:33N 47°35' W 122°20'0 0.0
2014-Sep-15 05:33N 47°35' W 122°20'0 0.0
2014-Sep-15 04:24N 47°35' W 122°20'0 0.0
2014-Sep-15 03:30N 47°35' W 122°20'0 0.0
2014-Sep-15 02:24N 47°35' W 122°20'0 0.0
2014-Sep-15 01:33N 47°35' W 122°20'0 0.0
2014-Sep-15 00:27N 47°35' W 122°20'0 0.0
2014-Sep-14 23:30N 47°35' W 122°20'0 0.0
2014-Sep-14 22:24N 47°35' W 122°20'0 0.0
2014-Sep-14 21:33N 47°35' W 122°20'0 0.0
2014-Sep-14 20:33N 47°35' W 122°20'0 0.0
2014-Sep-14 19:30N 47°35' W 122°20'0 0.0
2014-Sep-14 18:33N 47°35' W 122°20'0 0.0
2014-Sep-14 17:33N 47°35' W 122°20'0 0.0
2014-Sep-14 16:33N 47°35' W 122°20'0 0.0
2014-Sep-14 15:33N 47°35' W 122°20'0 0.0
2014-Sep-14 14:30N 47°35' W 122°20'0 0.0
2014-Sep-14 13:27N 47°35' W 122°20'0 0.0
2014-Sep-14 12:27N 47°35' W 122°20'0 0.0
2014-Sep-14 11:30N 47°35' W 122°20'0 0.0
2014-Sep-14 10:30N 47°35' W 122°20'0 0.0
2014-Sep-14 09:30N 47°35' W 122°20'0 0.0
2014-Sep-14 08:30N 47°35' W 122°20'0 0.0
2014-Sep-14 07:30N 47°35' W 122°20'0 0.0
2014-Sep-14 06:33N 47°35' W 122°20'0 0.0
2014-Sep-14 05:30N 47°35' W 122°20'0 0.0
2014-Sep-14 04:30N 47°35' W 122°20'0 0.0
2014-Sep-14 03:33N 47°35' W 122°20'0 0.0
2014-Sep-14 02:33N 47°35' W 122°20'0 0.0
2014-Sep-14 01:33N 47°35' W 122°20'0 0.0
2014-Sep-13 21:33N 47°35' W 122°20'0 0.0
2014-Sep-13 20:33N 47°35' W 122°20'0 0.0
2014-Sep-13 19:30N 47°35' W 122°20'0 0.0
2014-Sep-13 18:33N 47°35' W 122°20'0 0.0
2014-Sep-13 17:33N 47°35' W 122°20'0 0.0
2014-Sep-13 16:12N 47°35' W 122°20'0 0.0
2014-Sep-13 15:33N 47°35' W 122°20'0 0.0
2014-Sep-13 14:33N 47°35' W 122°20'0 0.0
2014-Sep-13 13:33N 47°35' W 122°20'0 0.0
2014-Sep-13 12:33N 47°35' W 122°20'0 0.0
2014-Sep-13 11:33N 47°35' W 122°20'0 0.0
2014-Sep-13 10:33N 47°35' W 122°20'0 0.0
2014-Sep-13 09:33N 47°35' W 122°20'0 0.0
2014-Sep-13 08:33N 47°35' W 122°20'0 0.0
2014-Sep-13 07:33N 47°35' W 122°20'0 0.0
2014-Sep-13 06:30N 47°35' W 122°20'0 0.0
2014-Sep-13 05:33N 47°35' W 122°20'0 0.0
2014-Sep-13 04:33N 47°35' W 122°20'0 0.0
2014-Sep-13 03:33N 47°35' W 122°20'0 0.0
2014-Sep-13 02:33N 47°35' W 122°20'0 0.0
2014-Sep-13 01:30N 47°35' W 122°20'0 0.0
2014-Sep-13 00:30N 47°35' W 122°20'0 0.0
2014-Sep-12 23:30N 47°35' W 122°20'0 0.0
2014-Sep-12 22:30N 47°35' W 122°20'0 0.0
2014-Sep-12 21:30N 47°35' W 122°20'0 0.0
2014-Sep-12 20:33N 47°35' W 122°20'0 0.0
2014-Sep-12 19:33N 47°35' W 122°20'0 0.0
2014-Sep-12 18:30N 47°35' W 122°20'0 0.0
2014-Sep-12 17:27N 47°35' W 122°20'0 0.0
2014-Sep-12 16:33N 47°35' W 122°20'0 0.0
2014-Sep-12 15:33N 47°35' W 122°20'0 0.0
2014-Sep-12 14:31N 47°35' W 122°20'0 0.0
2014-Sep-12 13:33N 47°35' W 122°20'0 0.0
2014-Sep-12 12:30N 47°35' W 122°20'0 0.0
2014-Sep-12 11:33N 47°35' W 122°20'0 0.0
2014-Sep-12 10:33N 47°35' W 122°20'0 0.0
2014-Sep-12 09:33N 47°35' W 122°20'0 0.0
2014-Sep-12 08:33N 47°35' W 122°20'0 0.0
2014-Sep-12 07:27N 47°35' W 122°20'0 0.0
2014-Sep-12 06:18N 47°35' W 122°20'0 0.0
2014-Sep-12 05:30N 47°35' W 122°20'0 0.0
2014-Sep-12 02:12N 47°35' W 122°20'0 0.0
2014-Sep-12 01:30N 47°35' W 122°20'0 0.0
2014-Sep-11 19:31N 47°35' W 122°20'0 0.0
2014-Sep-11 18:04N 47°35' W 122°20'0 0.0
2014-Sep-11 17:33N 47°35' W 122°20'1 0.5
2014-Sep-11 16:33N 47°36' W 122°21'1010.3
2014-Sep-11 15:33N 47°45' W 122°27'1010.3
2014-Sep-11 14:34N 47°55' W 122°31'1111.3
2014-Sep-11 13:34N 48°05' W 122°39'1312.4
2014-Sep-11 12:33N 48°13' W 122°54'2 2.4
2014-Sep-11 11:33N 48°14' W 122°57'3 3.4
2014-Sep-11 10:33N 48°16' W 123°01'1 1.0
2014-Sep-11 09:33N 48°15' W 123°01'2 1.6
2014-Sep-11 08:33N 48°17' W 123°01'1 1.1
2014-Sep-11 07:33N 48°16' W 123°02'1110.8
2014-Sep-11 06:33N 48°21' W 123°16'3 2.6
2014-Sep-11 05:33N 48°23' W 123°19'1111.1
2014-Sep-11 04:34N 48°33' W 123°13'1514.8
2014-Sep-11 03:34N 48°46' W 123°03'1515.4
2014-Sep-11 02:33N 48°59' W 123°16'1615.9
2014-Sep-11 01:34N 49°09' W 123°35'1615.7
2014-Sep-11 00:33N 49°16' W 123°57'611.3
2014-Sep-11 00:00N 49°18' W 124°06'2617.8 120 / 121023.910.8 0.525.610.817.8
2014-Sep-10 22:32N 49°36' W 124°35'79 9.8
2014-Sep-10 14:31N 50°28' W 126°07'1111.6
2014-Sep-10 13:33N 50°30' W 126°24'1211.0
2014-Sep-10 12:28N 50°35' W 126°42'1 3.0
2014-Sep-10 12:00N 50°36' W 126°42'1022.1 140 / 91023.3 5.4 15.6 7.211.1
2014-Sep-10 11:33N 50°42' W 126°54'1615.5
2014-Sep-10 10:33N 50°47' W 127°17'1413.8
2014-Sep-10 09:33N 50°54' W 127°37'1514.5
2014-Sep-10 08:31N 51°02' W 127°56'1413.9
2014-Sep-10 07:32N 51°09' W 128°15'1811.4
2014-Sep-10 06:00N 51°24' W 128°30'1824.4 320 / 151022.810.8 0.513.9 13.9
2014-Sep-10 05:15N 51°40' W 128°42'1115.9
2014-Sep-10 04:32N 51°52' W 128°40'1816.0
2014-Sep-10 03:24N 52°10' W 128°37'1611.7
2014-Sep-10 02:00N 52°24' W 128°24'12714.8 230 / 81019.010.8 23.310.212.8
2014-Sep-09 17:24N 54°08' W 130°26'1315.7
2014-Sep-09 16:33N 54°15' W 130°45'10 9.9
2014-Sep-09 15:33N 54°20' W 131°00'5 4.8
2014-Sep-09 14:31N 54°20' W 131°09'77 5.3
2014-Sep-09 00:00N 55°30' W 132°06'4314.4 300 / 151017.510.8 21.1 9.513.3
2014-Sep-08 21:00N 56°06' W 132°48'   999 / 51017.7 5.4 19.4 7.413.9
Track history (hours):
 
Tides and Currents Weather Stations Pressure Air Temp Water Temp Dewpoint Dewpoint Depression Visibility Wind Speed Wind Dir Waves Ship Positions

Oceanographic research ship USCGC Healy (USA)

Detailed information on ship capabilities available from University of Delaware's Ocean Information Center and ARCUS's ALIAS (Arctic Logistics Information and Support) project.

Last reported at 2014-Sep-18 18:00 UTC. Time now 2014-Sep-19 05:49 UTC.
Position N 50°12' W 130°42'.

Type: Dredging. MMSI: 303902000.

Wind from 210 at 27 knots

Waves 1.0 meters (3 feet), 2 second period

Barometer 1003.8 mb
Air temperature 19.4 ° C
Visibility: greater than 5.4 NM
Dewpoint 14.1 ° C
Water temperature 17.2 ° C

Date/timePositionNaut miles runAvg speedWind from/ knotsBaromVisibWave heightAir tempDewpointWater temp
2014-Sep-18 18:00N 50°12' W 130°42'3611.9 210 / 271003.8 5.4 1.019.414.117.2
2014-Sep-18 15:00N 49°54' W 129°54'15115.3 230 / 111005.8 5.4 0.519.414.117.2
2014-Sep-18 05:04N 48°44' W 126°28'815.5
2014-Sep-18 04:33N 48°40' W 126°18'1313.3
2014-Sep-18 03:33N 48°33' W 126°01'5 4.5
2014-Sep-18 02:33N 48°28' W 125°60'4 3.6
2014-Sep-18 01:33N 48°27' W 125°55'2 2.5
2014-Sep-18 00:33N 48°25' W 125°58'4 1.8
2014-Sep-17 22:33N 48°25' W 126°04'12 9.1
2014-Sep-17 21:15N 48°14' W 126°09'1 0.1
2014-Sep-17 16:19N 48°14' W 126°09'2 7.7
2014-Sep-17 16:00N 48°12' W 126°06'3 2.1 120 / 91008.1 0.517.812.115.6
2014-Sep-17 14:33N 48°14' W 126°09'1 0.3
2014-Sep-17 11:29N 48°15' W 126°08'3 2.7
2014-Sep-17 10:32N 48°13' W 126°09'2 1.5
2014-Sep-17 09:18N 48°14' W 126°10'35 3.5
2014-Sep-16 23:21N 48°16' W 125°18'13 4.7
2014-Sep-16 20:32N 48°25' W 125°32'1715.5
2014-Sep-16 19:27N 48°31' W 125°08'1516.5
2014-Sep-16 18:33N 48°31' W 124°46'1615.7
2014-Sep-16 17:33N 48°25' W 124°24'1515.3
2014-Sep-16 16:33N 48°19' W 124°02'1515.2
2014-Sep-16 15:33N 48°16' W 123°40'1515.2
2014-Sep-16 14:33N 48°14' W 123°18'9 8.9
2014-Sep-16 13:33N 48°14' W 123°04'4 4.1
2014-Sep-16 12:33N 48°14' W 122°58'3 3.1
2014-Sep-16 11:33N 48°16' W 123°02'3 3.5
2014-Sep-16 10:33N 48°14' W 123°05'5 5.2
2014-Sep-16 09:33N 48°15' W 122°58'3 2.9
2014-Sep-16 08:33N 48°16' W 123°02'3 3.3
2014-Sep-16 07:33N 48°14' W 123°06'5 4.6
2014-Sep-16 06:33N 48°14' W 122°59'3 2.5
2014-Sep-16 05:31N 48°14' W 123°03'2 1.7
2014-Sep-16 04:33N 48°15' W 123°04'2 2.5
2014-Sep-16 03:33N 48°16' W 123°01'4 3.8
2014-Sep-16 02:33N 48°14' W 123°06'3 2.7
2014-Sep-16 01:33N 48°14' W 123°02'0 0.4
2014-Sep-16 00:33N 48°15' W 123°02'1 1.4
2014-Sep-15 23:32N 48°14' W 123°04'3 3.1
2014-Sep-15 22:33N 48°15' W 122°60'3 3.0
2014-Sep-15 21:33N 48°14' W 122°55'9 9.2
2014-Sep-15 20:33N 48°10' W 122°43'1413.7
2014-Sep-15 19:31N 47°57' W 122°33'1212.7
2014-Sep-15 18:34N 47°46' W 122°26'9 9.3
2014-Sep-15 17:33N 47°37' W 122°23'2 2.0
2014-Sep-15 16:30N 47°35' W 122°20'0 0.0
2014-Sep-15 15:24N 47°35' W 122°20'0 0.0
2014-Sep-15 14:30N 47°35' W 122°20'0 0.0
2014-Sep-15 13:30N 47°35' W 122°20'0 0.0
2014-Sep-15 12:15N 47°35' W 122°20'0 0.0
2014-Sep-15 11:30N 47°35' W 122°20'0 0.0
2014-Sep-15 10:30N 47°35' W 122°20'0 0.0
2014-Sep-15 09:30N 47°35' W 122°20'0 0.0
2014-Sep-15 08:30N 47°35' W 122°20'0 0.0
2014-Sep-15 07:30N 47°35' W 122°20'0 0.0
2014-Sep-15 06:33N 47°35' W 122°20'0 0.0
2014-Sep-15 05:33N 47°35' W 122°20'0 0.0
2014-Sep-15 04:24N 47°35' W 122°20'0 0.0
2014-Sep-15 03:30N 47°35' W 122°20'0 0.0
2014-Sep-15 02:24N 47°35' W 122°20'0 0.0
2014-Sep-15 01:33N 47°35' W 122°20'0 0.0
2014-Sep-15 00:27N 47°35' W 122°20'0 0.0
2014-Sep-14 23:30N 47°35' W 122°20'0 0.0
2014-Sep-14 22:24N 47°35' W 122°20'0 0.0
2014-Sep-14 21:33N 47°35' W 122°20'0 0.0
2014-Sep-14 20:33N 47°35' W 122°20'0 0.0
2014-Sep-14 19:30N 47°35' W 122°20'0 0.0
2014-Sep-14 18:33N 47°35' W 122°20'0 0.0
2014-Sep-14 17:33N 47°35' W 122°20'0 0.0
2014-Sep-14 16:33N 47°35' W 122°20'0 0.0
2014-Sep-14 15:33N 47°35' W 122°20'0 0.0
2014-Sep-14 14:30N 47°35' W 122°20'0 0.0
2014-Sep-14 13:27N 47°35' W 122°20'0 0.0
2014-Sep-14 12:27N 47°35' W 122°20'0 0.0
2014-Sep-14 11:30N 47°35' W 122°20'0 0.0
2014-Sep-14 10:30N 47°35' W 122°20'0 0.0
2014-Sep-14 09:30N 47°35' W 122°20'0 0.0
2014-Sep-14 08:30N 47°35' W 122°20'0 0.0
2014-Sep-14 07:30N 47°35' W 122°20'0 0.0
2014-Sep-14 06:33N 47°35' W 122°20'0 0.0
2014-Sep-14 05:30N 47°35' W 122°20'0 0.0
2014-Sep-14 04:30N 47°35' W 122°20'0 0.0
2014-Sep-14 03:33N 47°35' W 122°20'0 0.0
2014-Sep-14 02:33N 47°35' W 122°20'0 0.0
2014-Sep-14 01:33N 47°35' W 122°20'0 0.0
2014-Sep-13 21:33N 47°35' W 122°20'0 0.0
2014-Sep-13 20:33N 47°35' W 122°20'0 0.0
2014-Sep-13 19:30N 47°35' W 122°20'0 0.0
2014-Sep-13 18:33N 47°35' W 122°20'0 0.0
2014-Sep-13 17:33N 47°35' W 122°20'0 0.0
2014-Sep-13 16:12N 47°35' W 122°20'0 0.0
2014-Sep-13 15:33N 47°35' W 122°20'0 0.0
2014-Sep-13 14:33N 47°35' W 122°20'0 0.0
2014-Sep-13 13:33N 47°35' W 122°20'0 0.0
2014-Sep-13 12:33N 47°35' W 122°20'0 0.0
2014-Sep-13 11:33N 47°35' W 122°20'0 0.0
2014-Sep-13 10:33N 47°35' W 122°20'0 0.0
2014-Sep-13 09:33N 47°35' W 122°20'0 0.0
2014-Sep-13 08:33N 47°35' W 122°20'0 0.0
2014-Sep-13 07:33N 47°35' W 122°20'0 0.0
2014-Sep-13 06:30N 47°35' W 122°20'0 0.0
2014-Sep-13 05:33N 47°35' W 122°20'0 0.0
2014-Sep-13 04:33N 47°35' W 122°20'0 0.0
2014-Sep-13 03:33N 47°35' W 122°20'0 0.0
2014-Sep-13 02:33N 47°35' W 122°20'0 0.0
2014-Sep-13 01:30N 47°35' W 122°20'0 0.0
2014-Sep-13 00:30N 47°35' W 122°20'0 0.0
2014-Sep-12 23:30N 47°35' W 122°20'0 0.0
2014-Sep-12 22:30N 47°35' W 122°20'0 0.0
2014-Sep-12 21:30N 47°35' W 122°20'0 0.0
2014-Sep-12 20:33N 47°35' W 122°20'0 0.0
2014-Sep-12 19:33N 47°35' W 122°20'0 0.0
2014-Sep-12 18:30N 47°35' W 122°20'0 0.0
2014-Sep-12 17:27N 47°35' W 122°20'0 0.0
2014-Sep-12 16:33N 47°35' W 122°20'0 0.0
2014-Sep-12 15:33N 47°35' W 122°20'0 0.0
2014-Sep-12 14:31N 47°35' W 122°20'0 0.0
2014-Sep-12 13:33N 47°35' W 122°20'0 0.0
2014-Sep-12 12:30N 47°35' W 122°20'0 0.0
2014-Sep-12 11:33N 47°35' W 122°20'0 0.0
2014-Sep-12 10:33N 47°35' W 122°20'0 0.0
2014-Sep-12 09:33N 47°35' W 122°20'0 0.0
2014-Sep-12 08:33N 47°35' W 122°20'0 0.0
2014-Sep-12 07:27N 47°35' W 122°20'0 0.0
2014-Sep-12 06:18N 47°35' W 122°20'0 0.0
2014-Sep-12 05:30N 47°35' W 122°20'0 0.0
2014-Sep-12 02:12N 47°35' W 122°20'0 0.0
2014-Sep-12 01:30N 47°35' W 122°20'0 0.0
2014-Sep-11 19:31N 47°35' W 122°20'0 0.0
2014-Sep-11 18:04N 47°35' W 122°20'0 0.0
2014-Sep-11 17:33N 47°35' W 122°20'1 0.5
2014-Sep-11 16:33N 47°36' W 122°21'1010.3
2014-Sep-11 15:33N 47°45' W 122°27'1010.3
2014-Sep-11 14:34N 47°55' W 122°31'1111.3
2014-Sep-11 13:34N 48°05' W 122°39'1312.4
2014-Sep-11 12:33N 48°13' W 122°54'2 2.4
2014-Sep-11 11:33N 48°14' W 122°57'3 3.4
2014-Sep-11 10:33N 48°16' W 123°01'1 1.0
2014-Sep-11 09:33N 48°15' W 123°01'2 1.6
2014-Sep-11 08:33N 48°17' W 123°01'1 1.1
2014-Sep-11 07:33N 48°16' W 123°02'1110.8
2014-Sep-11 06:33N 48°21' W 123°16'3 2.6
2014-Sep-11 05:33N 48°23' W 123°19'1111.1
2014-Sep-11 04:34N 48°33' W 123°13'1514.8
2014-Sep-11 03:34N 48°46' W 123°03'1515.4
2014-Sep-11 02:33N 48°59' W 123°16'1615.9
2014-Sep-11 01:34N 49°09' W 123°35'1615.7
2014-Sep-11 00:33N 49°16' W 123°57'611.3
2014-Sep-11 00:00N 49°18' W 124°06'2617.8 120 / 121023.910.8 0.525.610.817.8
2014-Sep-10 22:32N 49°36' W 124°35'79 9.8
2014-Sep-10 14:31N 50°28' W 126°07'1111.6
2014-Sep-10 13:33N 50°30' W 126°24'1211.0
2014-Sep-10 12:28N 50°35' W 126°42'1 3.0
2014-Sep-10 12:00N 50°36' W 126°42'1022.1 140 / 91023.3 5.4 15.6 7.211.1
2014-Sep-10 11:33N 50°42' W 126°54'1615.5
2014-Sep-10 10:33N 50°47' W 127°17'1413.8
2014-Sep-10 09:33N 50°54' W 127°37'1514.5
2014-Sep-10 08:31N 51°02' W 127°56'1413.9
2014-Sep-10 07:32N 51°09' W 128°15'1811.4
2014-Sep-10 06:00N 51°24' W 128°30'1824.4 320 / 151022.810.8 0.513.9 13.9
2014-Sep-10 05:15N 51°40' W 128°42'1115.9
2014-Sep-10 04:32N 51°52' W 128°40'1816.0
2014-Sep-10 03:24N 52°10' W 128°37'1611.7
2014-Sep-10 02:00N 52°24' W 128°24'12714.8 230 / 81019.010.8 23.310.212.8
2014-Sep-09 17:24N 54°08' W 130°26'1315.7
2014-Sep-09 16:33N 54°15' W 130°45'10 9.9
2014-Sep-09 15:33N 54°20' W 131°00'5 4.8
2014-Sep-09 14:31N 54°20' W 131°09'77 5.3
2014-Sep-09 00:00N 55°30' W 132°06'4314.4 300 / 151017.510.8 21.1 9.513.3
2014-Sep-08 21:00N 56°06' W 132°48'   999 / 51017.7 5.4 19.4 7.413.9

Dump ship's entire track history